Time;durP1;ratioP1;P1;durP2;ratioP2;P2;SDS_P1;SDS_P2;PMS_P1;PMS_P2;Temp;Humidity;BMP_temperature;BMP_pressure;BME280_temperature;BME280_humidity;BME280_pressure;Samples;Min_cycle;Max_cycle;Signal;HPM_P1;HPM_P2
2021/12/25 00:00:52;;;;;;;;;;;10.70;99.90;;;;;;5057151;28;20304;-79
2021/12/25 00:03:18;;;;;;;;;;;10.80;99.90;;;;;;5074803;28;19916;-80
2021/12/25 00:05:44;;;;;;;;;;;10.70;99.90;;;;;;5055538;28;20030;-78
2021/12/25 00:08:10;;;;;;;;;;;10.60;99.90;;;;;;5074693;28;20003;-79
2021/12/25 00:10:35;;;;;;;;;;;10.60;99.90;;;;;;5074815;28;19955;-78
2021/12/25 00:13:01;;;;;;;;;;;10.60;99.90;;;;;;5074557;28;19908;-81
2021/12/25 00:15:28;;;;;;;;;;;10.70;99.90;;;;;;5074231;28;19920;-80
2021/12/25 00:17:53;;;;;;;;;;;10.70;99.90;;;;;;5056767;28;19909;-77
2021/12/25 00:20:19;;;;;;;;;;;10.60;99.90;;;;;;5056429;28;19923;-80
2021/12/25 00:22:44;;;;;;;;;;;10.60;99.90;;;;;;5074030;28;19916;-80
2021/12/25 00:25:10;;;;;;;;;;;10.70;99.90;;;;;;5073984;28;19908;-79
2021/12/25 00:28:02;;;;;;;;;;;10.60;99.90;;;;;;5074537;28;19908;-80
2021/12/25 00:30:41;;;;;;;;;;;10.60;99.90;;;;;;5073765;28;19916;-80
2021/12/25 00:33:30;;;;;;;;;;;10.60;99.90;;;;;;5056068;28;19908;-79
2021/12/25 00:35:52;;;;;;;;;;;10.60;99.90;;;;;;5074025;28;19919;-79
2021/12/25 00:38:17;;;;;;;;;;;10.60;99.90;;;;;;5074292;28;19909;-78
2021/12/25 00:40:43;;;;;;;;;;;10.70;99.90;;;;;;5074425;28;20365;-78
2021/12/25 00:43:08;;;;;;;;;;;10.60;99.90;;;;;;5073936;28;19912;-80
2021/12/25 00:45:34;;;;;;;;;;;10.60;99.90;;;;;;5074159;28;19908;-81
2021/12/25 00:48:00;;;;;;;;;;;10.60;99.90;;;;;;5074018;28;19944;-79
2021/12/25 00:50:25;;;;;;;;;;;10.60;99.90;;;;;;5074073;28;20288;-79
2021/12/25 00:52:51;;;;;;;;;;;10.60;99.90;;;;;;5073887;28;19955;-79
2021/12/25 00:55:16;;;;;;;;;;;10.60;99.90;;;;;;5055387;28;19998;-79
2021/12/25 00:57:42;;;;;;;;;;;10.70;99.90;;;;;;5073947;28;20389;-79
2021/12/25 01:00:10;;;;;;;;;;;10.60;99.90;;;;;;5073870;28;19908;-78
2021/12/25 01:02:36;;;;;;;;;;;10.50;99.90;;;;;;5073815;28;19915;-79
2021/12/25 01:05:03;;;;;;;;;;;10.60;99.90;;;;;;5054374;28;19917;-78
2021/12/25 01:07:28;;;;;;;;;;;10.60;99.90;;;;;;5055777;28;20428;-79
2021/12/25 01:09:54;;;;;;;;;;;10.70;99.90;;;;;;5073785;28;19957;-80
2021/12/25 01:12:19;;;;;;;;;;;10.70;99.90;;;;;;5055757;28;20400;-80
2021/12/25 01:14:51;;;;;;;;;;;10.70;99.90;;;;;;5055294;28;19920;-78
2021/12/25 01:17:47;;;;;;;;;;;10.70;99.90;;;;;;5073792;28;20372;-79
2021/12/25 01:35:04;;;;;;;;;;;10.70;99.90;;;;;;5055979;28;20438;-79
2021/12/25 01:39:30;;;;;;;;;;;10.70;99.90;;;;;;5073061;28;20000;-80
2021/12/25 01:49:55;;;;;;;;;;;10.80;99.90;;;;;;5072988;28;20057;-80
2021/12/25 01:52:26;;;;;;;;;;;10.80;99.90;;;;;;5072951;28;19915;-79
2021/12/25 01:54:58;;;;;;;;;;;10.80;99.90;;;;;;5085854;28;19961;-79
2021/12/25 01:57:24;;;;;;;;;;;10.80;99.90;;;;;;5093060;28;19912;-79
2021/12/25 01:59:49;;;;;;;;;;;10.80;99.90;;;;;;5075238;28;19958;-81
2021/12/25 02:02:15;;;;;;;;;;;10.80;99.90;;;;;;5075147;28;19908;-78
2021/12/25 02:04:42;;;;;;;;;;;10.80;99.90;;;;;;5073367;28;19934;-78
2021/12/25 02:07:07;;;;;;;;;;;10.80;99.90;;;;;;5093005;28;19908;-79
2021/12/25 02:09:33;;;;;;;;;;;10.80;99.90;;;;;;5093235;28;20003;-79
2021/12/25 02:11:59;;;;;;;;;;;10.70;99.90;;;;;;5075104;28;20368;-81
2021/12/25 02:14:25;;;;;;;;;;;10.70;99.90;;;;;;5083808;28;19973;-82
2021/12/25 02:16:59;;;;;;;;;;;10.80;99.90;;;;;;5072990;28;19908;-81
2021/12/25 02:19:38;;;;;;;;;;;10.80;99.90;;;;;;5054742;28;19915;-79
2021/12/25 02:22:03;;;;;;;;;;;10.70;99.90;;;;;;5072676;28;19908;-81
2021/12/25 02:24:29;;;;;;;;;;;10.80;99.90;;;;;;5081849;28;19935;-79
2021/12/25 02:26:55;;;;;;;;;;;10.80;99.90;;;;;;5093115;28;20049;-78
2021/12/25 02:29:21;;;;;;;;;;;10.70;99.90;;;;;;5093223;28;19951;-78
2021/12/25 02:31:47;;;;;;;;;;;10.70;99.90;;;;;;5092895;28;19997;-81
2021/12/25 02:34:14;;;;;;;;;;;10.70;99.90;;;;;;5092675;28;19939;-78
2021/12/25 02:36:40;;;;;;;;;;;10.70;99.90;;;;;;5074793;28;19908;-77
2021/12/25 02:39:06;;;;;;;;;;;10.70;99.90;;;;;;5092949;28;19908;-81
2021/12/25 02:41:31;;;;;;;;;;;10.70;99.90;;;;;;5093005;28;19969;-78
2021/12/25 02:43:57;;;;;;;;;;;10.70;99.90;;;;;;5074396;28;19955;-79
2021/12/25 02:46:24;;;;;;;;;;;10.70;99.90;;;;;;5095801;28;19914;-79
2021/12/25 02:48:52;;;;;;;;;;;10.70;99.90;;;;;;5096614;28;19962;-78
2021/12/25 02:51:18;;;;;;;;;;;10.70;99.90;;;;;;5096487;28;19990;-79
2021/12/25 02:53:44;;;;;;;;;;;10.70;99.90;;;;;;5096423;28;19912;-79
2021/12/25 02:56:09;;;;;;;;;;;10.70;99.90;;;;;;5096318;28;20041;-80
2021/12/25 02:58:35;;;;;;;;;;;10.70;99.90;;;;;;5096706;28;19943;-79
2021/12/25 03:01:03;;;;;;;;;;;10.70;99.90;;;;;;5096688;28;20002;-81
2021/12/25 03:03:29;;;;;;;;;;;10.70;99.90;;;;;;5078285;28;19963;-78
2021/12/25 03:05:54;;;;;;;;;;;10.60;99.90;;;;;;5076610;28;19955;-78
2021/12/25 03:08:20;;;;;;;;;;;10.60;99.90;;;;;;5096303;28;19909;-79
2021/12/25 03:10:46;;;;;;;;;;;10.60;99.90;;;;;;5096313;28;19908;-79
2021/12/25 03:15:45;;;;;;;;;;;10.60;99.90;;;;;;5095469;28;19920;-80
2021/12/25 03:18:12;;;;;;;;;;;10.60;99.90;;;;;;5096154;28;19937;-80
2021/12/25 03:20:40;;;;;;;;;;;10.60;99.90;;;;;;5096121;28;19908;-79
2021/12/25 03:23:06;;;;;;;;;;;10.50;99.90;;;;;;5095997;28;19908;-79
2021/12/25 03:25:32;;;;;;;;;;;10.50;99.90;;;;;;5095580;28;19908;-78
2021/12/25 03:27:57;;;;;;;;;;;10.50;99.90;;;;;;5094625;28;19919;-80
2021/12/25 03:30:24;;;;;;;;;;;10.50;99.90;;;;;;5095947;28;20376;-80
2021/12/25 03:32:50;;;;;;;;;;;10.50;99.90;;;;;;5095648;28;20295;-81
2021/12/25 03:35:16;;;;;;;;;;;10.60;99.90;;;;;;5082090;28;20007;-78
2021/12/25 03:37:42;;;;;;;;;;;10.50;99.90;;;;;;5057695;28;20004;-78
2021/12/25 03:40:07;;;;;;;;;;;10.50;99.90;;;;;;5075349;28;19954;-77
2021/12/25 03:42:33;;;;;;;;;;;10.50;99.90;;;;;;5075477;28;19915;-78
2021/12/25 03:44:59;;;;;;;;;;;10.50;99.90;;;;;;5074871;28;20452;-78
2021/12/25 03:47:33;;;;;;;;;;;10.50;99.90;;;;;;5075329;28;20297;-80
2021/12/25 03:58:18;;;;;;;;;;;10.50;99.90;;;;;;5094081;28;19914;-79
2021/12/25 04:00:47;;;;;;;;;;;10.50;99.90;;;;;;5095422;28;20314;-81
2021/12/25 04:03:22;;;;;;;;;;;10.50;99.90;;;;;;5095223;28;20284;-77
2021/12/25 04:05:49;;;;;;;;;;;10.50;99.90;;;;;;5057289;28;19916;-79
2021/12/25 04:08:18;;;;;;;;;;;10.50;99.90;;;;;;5094954;28;19915;-78
2021/12/25 04:10:45;;;;;;;;;;;10.50;99.90;;;;;;5095162;28;19908;-79
2021/12/25 04:13:15;;;;;;;;;;;10.50;99.90;;;;;;5095087;28;19908;-77
2021/12/25 04:15:41;;;;;;;;;;;10.40;99.90;;;;;;5078853;28;19932;-78
2021/12/25 04:18:07;;;;;;;;;;;10.50;99.90;;;;;;5056733;28;19908;-80
2021/12/25 04:20:32;;;;;;;;;;;10.40;99.90;;;;;;5074483;28;19931;-79
2021/12/25 04:23:04;;;;;;;;;;;10.40;99.90;;;;;;5074600;28;20392;-78
2021/12/25 04:25:32;;;;;;;;;;;10.40;99.90;;;;;;5074179;28;19920;-79
2021/12/25 04:28:04;;;;;;;;;;;10.40;99.90;;;;;;5074517;28;19919;-79
2021/12/25 04:30:38;;;;;;;;;;;10.50;99.90;;;;;;5074450;28;19908;-79
2021/12/25 05:03:09;;;;;;;;;;;10.50;99.90;;;;;;5094081;28;19954;-79
2021/12/25 05:05:35;;;;;;;;;;;10.50;99.90;;;;;;5056181;28;19924;-79
2021/12/25 05:08:01;;;;;;;;;;;10.50;99.90;;;;;;5093803;28;20384;-80
2021/12/25 05:10:26;;;;;;;;;;;10.50;99.90;;;;;;5093893;28;20049;-77
2021/12/25 05:12:52;;;;;;;;;;;10.50;99.90;;;;;;5093977;28;20288;-78
2021/12/25 05:15:17;;;;;;;;;;;10.50;99.90;;;;;;5093257;28;20303;-78
2021/12/25 05:17:43;;;;;;;;;;;10.60;99.90;;;;;;5093846;28;20402;-79
2021/12/25 05:20:09;;;;;;;;;;;10.50;99.90;;;;;;5075518;28;20007;-78
2021/12/25 05:22:35;;;;;;;;;;;10.60;99.90;;;;;;5094009;28;20318;-78
2021/12/25 05:25:00;;;;;;;;;;;10.50;99.90;;;;;;5075126;28;20010;-78
2021/12/25 05:27:26;;;;;;;;;;;10.50;99.90;;;;;;5075551;28;19953;-80
2021/12/25 05:29:51;;;;;;;;;;;10.50;99.90;;;;;;5093771;28;20369;-79
2021/12/25 05:32:18;;;;;;;;;;;10.50;99.90;;;;;;5093514;28;19999;-78
2021/12/25 05:34:44;;;;;;;;;;;10.50;99.90;;;;;;5093353;28;19916;-78
2021/12/25 05:37:10;;;;;;;;;;;10.50;99.90;;;;;;5093400;28;19908;-77
2021/12/25 05:39:36;;;;;;;;;;;10.40;99.90;;;;;;5075362;28;19908;-78
2021/12/25 05:42:02;;;;;;;;;;;10.40;99.90;;;;;;5075480;28;20002;-81
2021/12/25 05:44:28;;;;;;;;;;;10.40;99.90;;;;;;5093137;28;19908;-78
2021/12/25 05:46:54;;;;;;;;;;;10.50;99.90;;;;;;5093505;28;20061;-78
2021/12/25 05:49:20;;;;;;;;;;;10.50;99.90;;;;;;5093837;28;19919;-78
2021/12/25 05:51:46;;;;;;;;;;;10.60;99.90;;;;;;5092594;28;19935;-79
2021/12/25 05:54:11;;;;;;;;;;;10.60;99.90;;;;;;5092822;28;20008;-77
2021/12/25 05:56:37;;;;;;;;;;;10.60;99.90;;;;;;5072975;28;19908;-78
2021/12/25 05:59:03;;;;;;;;;;;10.50;99.90;;;;;;5073202;28;19916;-77
2021/12/25 06:01:28;;;;;;;;;;;10.60;99.90;;;;;;5072715;28;20366;-78
2021/12/25 06:03:56;;;;;;;;;;;10.60;99.90;;;;;;5073103;28;20288;-78
2021/12/25 06:06:21;;;;;;;;;;;10.60;99.90;;;;;;5071237;28;20046;-79
2021/12/25 06:08:47;;;;;;;;;;;10.50;99.90;;;;;;5091688;28;20380;-80
2021/12/25 06:11:13;;;;;;;;;;;10.60;99.90;;;;;;5093357;28;20278;-78
2021/12/25 06:13:44;;;;;;;;;;;10.50;99.90;;;;;;5093070;28;19909;-79
2021/12/25 06:16:10;;;;;;;;;;;10.60;99.90;;;;;;5092867;28;19912;-78
2021/12/25 06:18:35;;;;;;;;;;;10.70;99.90;;;;;;5093253;28;20398;-77
2021/12/25 06:21:01;;;;;;;;;;;10.70;99.90;;;;;;5095284;28;19909;-79
2021/12/25 06:23:29;;;;;;;;;;;10.70;99.90;;;;;;5078865;28;20368;-79
2021/12/25 06:25:55;;;;;;;;;;;10.70;99.90;;;;;;5096677;28;20372;-78
2021/12/25 06:28:21;;;;;;;;;;;10.80;99.90;;;;;;5097258;28;19915;-78
2021/12/25 06:30:49;;;;;;;;;;;10.70;99.90;;;;;;5097038;28;20416;-77
2021/12/25 06:33:15;;;;;;;;;;;10.80;99.90;;;;;;5096775;28;20422;-80
2021/12/25 06:35:41;;;;;;;;;;;10.80;99.90;;;;;;5085196;28;19913;-79
2021/12/25 06:38:06;;;;;;;;;;;10.80;99.90;;;;;;5076785;28;20003;-79
2021/12/25 06:40:32;;;;;;;;;;;10.80;99.90;;;;;;5075752;28;19908;-79
2021/12/25 06:42:58;;;;;;;;;;;10.70;99.90;;;;;;5075612;28;19913;-77
2021/12/25 06:45:24;;;;;;;;;;;10.80;99.90;;;;;;5075707;28;20406;-77
2021/12/25 06:47:50;;;;;;;;;;;10.80;99.90;;;;;;5076275;28;19948;-78
2021/12/25 06:50:15;;;;;;;;;;;10.80;99.90;;;;;;5075583;28;20403;-78
2021/12/25 06:52:45;;;;;;;;;;;10.80;99.90;;;;;;5076223;28;20007;-77
2021/12/25 06:55:11;;;;;;;;;;;10.70;99.90;;;;;;5057841;28;19958;-80
2021/12/25 06:57:44;;;;;;;;;;;10.70;99.90;;;;;;5076119;28;19909;-79
2021/12/25 07:00:11;;;;;;;;;;;10.70;99.90;;;;;;5057401;28;19915;-79
2021/12/25 07:02:36;;;;;;;;;;;10.60;99.90;;;;;;5076182;28;20384;-78
2021/12/25 07:05:02;;;;;;;;;;;10.70;99.90;;;;;;5075716;28;19949;-77
2021/12/25 07:07:27;;;;;;;;;;;10.70;99.90;;;;;;5056901;28;19965;-78
2021/12/25 07:09:53;;;;;;;;;;;10.70;99.90;;;;;;5076042;28;19915;-78
2021/12/25 07:12:19;;;;;;;;;;;10.70;99.90;;;;;;5076043;28;19912;-77
2021/12/25 07:14:45;;;;;;;;;;;10.70;99.90;;;;;;5075472;28;19956;-78
2021/12/25 07:17:10;;;;;;;;;;;10.70;99.90;;;;;;5075859;28;19951;-79
2021/12/25 07:19:36;;;;;;;;;;;10.70;99.90;;;;;;5057923;28;20002;-79
2021/12/25 07:22:03;;;;;;;;;;;10.70;99.90;;;;;;5057028;28;19909;-79
2021/12/25 07:24:28;;;;;;;;;;;10.70;99.90;;;;;;5075107;28;19953;-78
2021/12/25 07:26:54;;;;;;;;;;;10.70;99.90;;;;;;5074845;28;19908;-77
2021/12/25 07:29:20;;;;;;;;;;;10.70;99.90;;;;;;5075379;28;19909;-79
2021/12/25 07:31:45;;;;;;;;;;;10.70;99.90;;;;;;5075570;28;20458;-78
2021/12/25 07:34:11;;;;;;;;;;;10.70;99.90;;;;;;5075538;28;19943;-80
2021/12/25 07:36:36;;;;;;;;;;;10.70;99.90;;;;;;5075112;28;19954;-79
2021/12/25 07:39:02;;;;;;;;;;;10.70;99.90;;;;;;5075438;28;19954;-78
2021/12/25 07:41:28;;;;;;;;;;;10.70;99.90;;;;;;5075355;28;19913;-79
2021/12/25 07:43:54;;;;;;;;;;;10.70;99.90;;;;;;5075079;28;19934;-79
2021/12/25 07:46:21;;;;;;;;;;;10.70;99.90;;;;;;5089007;28;19908;-78
2021/12/25 07:48:47;;;;;;;;;;;10.70;99.90;;;;;;5076775;28;20429;-78
2021/12/25 07:51:13;;;;;;;;;;;10.70;99.90;;;;;;5095160;28;19960;-79
2021/12/25 07:53:38;;;;;;;;;;;10.80;99.90;;;;;;5095213;28;20497;-78
2021/12/25 07:56:04;;;;;;;;;;;10.80;99.90;;;;;;5083105;28;20012;-79
2021/12/25 07:58:30;;;;;;;;;;;10.70;99.90;;;;;;5056517;28;19979;-78
2021/12/25 08:00:55;;;;;;;;;;;10.70;99.90;;;;;;5074957;28;19915;-80
2021/12/25 08:03:21;;;;;;;;;;;10.70;99.90;;;;;;5074706;28;19909;-79
2021/12/25 08:05:47;;;;;;;;;;;10.60;99.90;;;;;;5074080;28;20292;-79
2021/12/25 08:08:12;;;;;;;;;;;10.60;99.90;;;;;;5055514;28;19916;-78
2021/12/25 08:10:39;;;;;;;;;;;10.60;99.90;;;;;;5074521;28;19909;-78
2021/12/25 08:13:04;;;;;;;;;;;10.70;99.90;;;;;;5074230;28;19908;-80
2021/12/25 08:15:30;;;;;;;;;;;10.60;99.90;;;;;;5055892;28;19927;-77
2021/12/25 08:17:57;;;;;;;;;;;10.60;99.90;;;;;;5074825;28;20293;-77
2021/12/25 08:20:23;;;;;;;;;;;10.70;99.90;;;;;;5074512;28;19912;-77
2021/12/25 08:22:49;;;;;;;;;;;10.60;99.90;;;;;;5074710;28;19935;-79
2021/12/25 08:25:15;;;;;;;;;;;10.60;99.90;;;;;;5074267;28;20327;-77
2021/12/25 08:27:41;;;;;;;;;;;10.60;99.90;;;;;;5074517;28;19908;-78
2021/12/25 08:30:08;;;;;;;;;;;10.60;99.90;;;;;;5074078;28;19973;-77
2021/12/25 08:32:34;;;;;;;;;;;10.70;99.90;;;;;;5074222;28;19913;-76
2021/12/25 08:35:00;;;;;;;;;;;10.70;99.90;;;;;;5074189;28;20030;-78
2021/12/25 08:37:26;;;;;;;;;;;10.70;99.90;;;;;;5056395;28;20373;-76
2021/12/25 08:39:52;;;;;;;;;;;10.70;99.90;;;;;;5056444;28;20292;-78
2021/12/25 08:42:18;;;;;;;;;;;10.80;99.90;;;;;;5074080;28;19909;-78
2021/12/25 08:45:04;;;;;;;;;;;10.80;99.90;;;;;;5073619;28;19908;-78
2021/12/25 08:47:35;;;;;;;;;;;10.90;99.90;;;;;;5055968;28;19951;-77
2021/12/25 08:50:03;;;;;;;;;;;10.90;99.90;;;;;;5074131;28;19931;-78
2021/12/25 08:52:28;;;;;;;;;;;11.00;99.90;;;;;;5074045;28;19909;-79
2021/12/25 08:54:54;;;;;;;;;;;10.90;99.90;;;;;;5073988;28;20360;-78
2021/12/25 08:57:21;;;;;;;;;;;11.00;99.90;;;;;;5094163;28;19908;-79
2021/12/25 08:59:47;;;;;;;;;;;11.10;99.90;;;;;;5094246;28;20325;-77
2021/12/25 09:02:15;;;;;;;;;;;11.10;99.90;;;;;;5094156;28;19908;-77
2021/12/25 09:04:42;;;;;;;;;;;11.10;99.90;;;;;;5094079;28;19915;-79
2021/12/25 09:07:08;;;;;;;;;;;11.00;99.90;;;;;;5074497;28;19965;-77
2021/12/25 09:09:33;;;;;;;;;;;11.00;99.90;;;;;;5094023;28;20271;-78
2021/12/25 09:11:59;;;;;;;;;;;11.00;99.90;;;;;;5094033;28;20010;-77
2021/12/25 09:14:25;;;;;;;;;;;11.10;99.90;;;;;;5093658;28;20048;-76
2021/12/25 09:16:50;;;;;;;;;;;11.10;99.90;;;;;;5093444;28;19908;-78
2021/12/25 09:19:16;;;;;;;;;;;11.10;99.90;;;;;;5075647;28;20437;-78
2021/12/25 09:21:42;;;;;;;;;;;11.10;99.90;;;;;;5093579;28;19912;-78
2021/12/25 09:24:07;;;;;;;;;;;11.10;99.90;;;;;;5093887;28;19908;-77
2021/12/25 09:26:33;;;;;;;;;;;11.20;99.90;;;;;;5080557;28;19908;-79
2021/12/25 09:28:59;;;;;;;;;;;11.20;99.90;;;;;;5073655;28;19961;-77
2021/12/25 09:31:25;;;;;;;;;;;11.30;99.90;;;;;;5055317;28;19954;-77
2021/12/25 09:33:52;;;;;;;;;;;11.40;99.90;;;;;;5073433;28;20307;-78
2021/12/25 09:36:18;;;;;;;;;;;11.50;99.90;;;;;;5073016;28;19916;-78
2021/12/25 09:38:44;;;;;;;;;;;11.50;99.90;;;;;;5073307;28;19916;-78
2021/12/25 09:41:10;;;;;;;;;;;11.40;99.90;;;;;;5073355;28;19948;-78
2021/12/25 09:43:36;;;;;;;;;;;11.50;99.90;;;;;;5073163;28;19945;-79
2021/12/25 09:46:02;;;;;;;;;;;11.50;99.90;;;;;;5081069;28;19908;-77
2021/12/25 09:48:27;;;;;;;;;;;11.70;99.90;;;;;;5093336;28;19908;-78
2021/12/25 09:50:54;;;;;;;;;;;11.80;99.90;;;;;;5091575;28;19961;-78
2021/12/25 09:53:20;;;;;;;;;;;12.00;99.90;;;;;;5093206;28;19915;-79
2021/12/25 09:55:46;;;;;;;;;;;12.00;99.90;;;;;;5091455;28;20295;-77
2021/12/25 09:58:12;;;;;;;;;;;12.10;99.90;;;;;;5093232;28;20280;-79
2021/12/25 10:00:42;;;;;;;;;;;12.10;99.90;;;;;;5093117;28;20357;-77
2021/12/25 10:03:08;;;;;;;;;;;12.10;99.90;;;;;;5093327;28;19909;-77
2021/12/25 10:05:43;;;;;;;;;;;11.80;99.90;;;;;;5092930;28;19915;-78
2021/12/25 10:08:13;;;;;;;;;;;11.90;99.90;;;;;;5074163;28;20420;-79
2021/12/25 10:10:44;;;;;;;;;;;11.90;99.90;;;;;;5093268;28;19915;-77
2021/12/25 10:13:30;;;;;;;;;;;11.90;99.90;;;;;;5093271;28;19913;-78
2021/12/25 10:16:01;;;;;;;;;;;12.10;99.90;;;;;;5074633;28;19927;-77
2021/12/25 10:18:29;;;;;;;;;;;12.30;99.90;;;;;;5093281;28;20384;-77
2021/12/25 10:20:55;;;;;;;;;;;12.80;99.90;;;;;;5092737;28;20007;-77
2021/12/25 10:23:28;;;;;;;;;;;13.10;99.90;;;;;;5093300;28;19944;-77
2021/12/25 10:25:59;;;;;;;;;;;13.40;99.90;;;;;;5093023;28;19914;-77
2021/12/25 10:28:30;;;;;;;;;;;13.50;99.90;;;;;;5091649;28;19908;-78
2021/12/25 10:31:08;;;;;;;;;;;13.80;99.90;;;;;;5093050;28;19981;-80
2021/12/25 10:33:38;;;;;;;;;;;13.70;99.90;;;;;;5093078;28;20319;-79
2021/12/25 10:36:05;;;;;;;;;;;13.90;99.90;;;;;;5092610;28;19918;-77
2021/12/25 10:38:31;;;;;;;;;;;14.10;99.90;;;;;;5093064;28;19915;-78
2021/12/25 10:41:20;;;;;;;;;;;14.20;99.90;;;;;;5092846;28;19912;-79
2021/12/25 10:43:47;;;;;;;;;;;14.40;99.90;;;;;;5092851;28;20288;-77
2021/12/25 10:46:13;;;;;;;;;;;14.70;99.90;;;;;;5092597;28;19908;-80
2021/12/25 10:48:39;;;;;;;;;;;14.80;99.90;;;;;;5092979;28;19915;-78
2021/12/25 10:51:05;;;;;;;;;;;14.80;99.90;;;;;;5092688;28;19908;-78
2021/12/25 10:53:33;;;;;;;;;;;14.70;99.90;;;;;;5092956;28;19957;-79
2021/12/25 10:56:13;;;;;;;;;;;14.70;99.90;;;;;;5074293;28;19965;-79
2021/12/25 10:58:39;;;;;;;;;;;14.20;99.90;;;;;;5092816;28;19908;-78
2021/12/25 11:01:06;;;;;;;;;;;13.70;99.90;;;;;;5092918;28;19961;-78
2021/12/25 11:03:32;;;;;;;;;;;13.30;99.90;;;;;;5092546;28;19908;-77
2021/12/25 11:06:03;;;;;;;;;;;13.10;99.90;;;;;;5087757;28;19912;-78
2021/12/25 11:08:29;;;;;;;;;;;13.00;99.90;;;;;;5056247;28;19916;-78
2021/12/25 11:10:56;;;;;;;;;;;13.00;99.90;;;;;;5076058;28;20289;-78
2021/12/25 11:13:23;;;;;;;;;;;12.90;99.90;;;;;;5076070;28;19954;-78
2021/12/25 11:15:53;;;;;;;;;;;12.80;99.90;;;;;;5075397;28;19931;-77
2021/12/25 11:18:19;;;;;;;;;;;12.60;99.90;;;;;;5075924;28;19908;-77
2021/12/25 11:20:46;;;;;;;;;;;12.60;99.90;;;;;;5075689;28;20369;-79
2021/12/25 11:23:14;;;;;;;;;;;12.60;99.90;;;;;;5075755;28;19913;-78
2021/12/25 11:25:40;;;;;;;;;;;12.70;99.90;;;;;;5075666;28;19995;-79
2021/12/25 11:28:09;;;;;;;;;;;12.60;99.90;;;;;;5057675;28;19909;-77
2021/12/25 11:30:35;;;;;;;;;;;12.50;99.90;;;;;;5075763;28;19965;-80
2021/12/25 11:33:01;;;;;;;;;;;12.40;99.90;;;;;;5075350;28;19908;-77
2021/12/25 11:35:27;;;;;;;;;;;12.40;99.90;;;;;;5075468;28;20469;-78
2021/12/25 11:37:55;;;;;;;;;;;12.20;99.90;;;;;;5075465;28;19931;-76
2021/12/25 11:40:23;;;;;;;;;;;12.20;99.90;;;;;;5075454;28;20342;-79
2021/12/25 11:42:52;;;;;;;;;;;12.10;99.90;;;;;;5075511;28;19908;-79
2021/12/25 11:45:20;;;;;;;;;;;12.10;99.90;;;;;;5057390;28;19909;-77
2021/12/25 11:47:53;;;;;;;;;;;11.90;99.90;;;;;;5074742;28;20042;-77
2021/12/25 11:50:24;;;;;;;;;;;11.80;99.90;;;;;;5075245;28;19909;-80
2021/12/25 11:53:13;;;;;;;;;;;11.80;99.90;;;;;;5075339;28;19919;-77
2021/12/25 11:58:37;;;;;;;;;;;11.80;99.90;;;;;;5095395;28;19915;-78
2021/12/25 12:00:54;;;;;;;;;;;11.80;99.90;;;;;;5094337;28;19909;-78
2021/12/25 12:03:54;;;;;;;;;;;11.60;99.90;;;;;;5095210;28;19912;-77
2021/12/25 12:06:19;;;;;;;;;;;11.50;99.90;;;;;;5076276;28;19912;-78
2021/12/25 12:08:54;;;;;;;;;;;11.50;99.90;;;;;;5075841;28;20299;-78
2021/12/25 12:11:21;;;;;;;;;;;11.50;99.90;;;;;;5095147;28;20435;-76
2021/12/25 12:13:47;;;;;;;;;;;11.60;99.90;;;;;;5094988;28;20364;-76
2021/12/25 12:16:12;;;;;;;;;;;11.50;99.90;;;;;;5094707;28;20291;-77
2021/12/25 12:18:39;;;;;;;;;;;11.70;99.90;;;;;;5094177;28;19908;-78
2021/12/25 12:21:17;;;;;;;;;;;11.80;99.90;;;;;;5093881;28;19908;-78
2021/12/25 12:26:13;;;;;;;;;;;11.80;99.90;;;;;;5090541;28;20433;-78
2021/12/25 12:28:57;;;;;;;;;;;11.90;99.90;;;;;;5074602;28;19995;-78
2021/12/25 12:31:41;;;;;;;;;;;12.10;99.90;;;;;;5074454;28;19954;-79
2021/12/25 12:34:25;;;;;;;;;;;12.20;99.90;;;;;;5074553;28;19908;-77
2021/12/25 12:36:51;;;;;;;;;;;12.10;99.90;;;;;;5073948;28;19970;-78
2021/12/25 12:39:18;;;;;;;;;;;12.20;99.90;;;;;;5074393;28;20450;-78
2021/12/25 12:41:52;;;;;;;;;;;12.30;99.90;;;;;;5056320;28;19916;-77
2021/12/25 12:44:24;;;;;;;;;;;12.30;99.90;;;;;;5073799;28;19909;-77
2021/12/25 12:46:50;;;;;;;;;;;12.40;99.90;;;;;;5073659;28;19912;-76
2021/12/25 12:49:22;;;;;;;;;;;12.40;99.90;;;;;;5074167;28;19908;-77
2021/12/25 12:51:49;;;;;;;;;;;12.20;99.90;;;;;;5073879;28;19909;-80
2021/12/25 12:54:33;;;;;;;;;;;12.10;99.90;;;;;;5074059;28;19908;-78
2021/12/25 12:57:02;;;;;;;;;;;12.20;99.90;;;;;;5073579;28;19912;-77
2021/12/25 12:59:43;;;;;;;;;;;12.20;99.90;;;;;;5073268;28;19987;-78
2021/12/25 13:02:09;;;;;;;;;;;12.30;99.90;;;;;;5073817;28;19939;-79
2021/12/25 13:05:02;;;;;;;;;;;12.30;99.90;;;;;;5073646;28;20007;-78
2021/12/25 13:07:29;;;;;;;;;;;12.30;99.90;;;;;;5033272;28;20288;-77
2021/12/25 13:09:57;;;;;;;;;;;12.30;99.90;;;;;;5073602;28;19912;-77
2021/12/25 13:12:35;;;;;;;;;;;12.30;99.90;;;;;;5073759;28;19958;-77
2021/12/25 13:15:03;;;;;;;;;;;12.20;99.90;;;;;;5073318;28;20023;-77
2021/12/25 13:17:28;;;;;;;;;;;12.10;99.90;;;;;;5086096;28;19939;-78
2021/12/25 13:19:56;;;;;;;;;;;12.10;99.90;;;;;;5092852;28;20140;-77
2021/12/25 13:22:22;;;;;;;;;;;12.00;99.90;;;;;;5075483;28;19908;-77
2021/12/25 13:24:54;;;;;;;;;;;12.00;99.90;;;;;;5093860;28;20376;-78
2021/12/25 13:27:20;;;;;;;;;;;11.90;99.90;;;;;;5093481;28;19912;-78
2021/12/25 13:29:45;;;;;;;;;;;11.80;99.90;;;;;;5093669;28;20284;-79
2021/12/25 13:32:11;;;;;;;;;;;11.70;99.90;;;;;;5093563;28;19908;-77
2021/12/25 13:34:38;;;;;;;;;;;11.60;99.90;;;;;;5093553;28;19935;-79
2021/12/25 13:37:06;;;;;;;;;;;11.60;99.90;;;;;;5093360;28;19929;-77
2021/12/25 13:39:33;;;;;;;;;;;11.60;99.90;;;;;;5093581;28;20368;-77
2021/12/25 13:42:12;;;;;;;;;;;11.60;99.90;;;;;;5093606;28;19962;-78
2021/12/25 13:44:40;;;;;;;;;;;11.50;99.90;;;;;;5075373;28;20041;-79
2021/12/25 13:47:16;;;;;;;;;;;11.40;99.90;;;;;;5093145;28;20415;-78
2021/12/25 13:49:45;;;;;;;;;;;11.40;99.90;;;;;;5093517;28;20100;-77
2021/12/25 13:52:20;;;;;;;;;;;11.50;99.90;;;;;;5093178;28;20373;-78
2021/12/25 13:54:49;;;;;;;;;;;11.50;99.90;;;;;;5093286;28;19969;-78
2021/12/25 13:57:18;;;;;;;;;;;11.60;99.90;;;;;;5092839;28;19908;-77
2021/12/25 13:59:49;;;;;;;;;;;11.60;99.90;;;;;;5093353;28;19997;-79
2021/12/25 14:02:15;;;;;;;;;;;11.60;99.90;;;;;;5093408;28;20352;-77
2021/12/25 14:04:42;;;;;;;;;;;11.60;99.90;;;;;;5093373;28;19943;-77
2021/12/25 14:07:08;;;;;;;;;;;11.60;99.90;;;;;;5074592;28;19915;-76
2021/12/25 14:09:34;;;;;;;;;;;11.50;99.90;;;;;;5073947;28;19998;-78
2021/12/25 14:12:01;;;;;;;;;;;11.40;99.90;;;;;;5075266;28;19958;-77
2021/12/25 14:14:27;;;;;;;;;;;11.40;99.90;;;;;;5092962;28;19946;-78
2021/12/25 14:16:53;;;;;;;;;;;11.40;99.90;;;;;;5092857;28;19917;-76
2021/12/25 14:19:19;;;;;;;;;;;11.40;99.90;;;;;;5093373;28;19915;-77
2021/12/25 14:21:52;;;;;;;;;;;11.30;99.90;;;;;;5092977;28;19908;-76
2021/12/25 14:24:17;;;;;;;;;;;11.30;99.90;;;;;;5093180;28;20003;-77
2021/12/25 14:26:43;;;;;;;;;;;11.30;99.90;;;;;;5092849;28;19951;-78
2021/12/25 14:29:21;;;;;;;;;;;11.30;99.90;;;;;;5091913;28;20360;-77
2021/12/25 14:31:47;;;;;;;;;;;11.30;99.90;;;;;;5092911;28;20166;-78
2021/12/25 14:34:12;;;;;;;;;;;11.40;99.90;;;;;;5093048;28;19930;-78
2021/12/25 14:36:40;;;;;;;;;;;11.50;99.90;;;;;;5092470;28;19999;-77
2021/12/25 14:39:06;;;;;;;;;;;11.60;99.90;;;;;;5093067;28;19908;-79
2021/12/25 14:41:36;;;;;;;;;;;11.60;99.90;;;;;;5094532;28;19999;-80
2021/12/25 14:44:18;;;;;;;;;;;11.60;99.90;;;;;;5096513;28;19908;-78
2021/12/25 14:46:45;;;;;;;;;;;11.60;99.90;;;;;;5096405;28;19960;-78
2021/12/25 14:49:11;;;;;;;;;;;11.60;99.90;;;;;;5096736;28;20241;-78
2021/12/25 14:51:42;;;;;;;;;;;11.50;99.90;;;;;;5096575;28;20292;-77
2021/12/25 14:54:08;;;;;;;;;;;11.40;99.90;;;;;;5096717;28;19908;-79
2021/12/25 14:56:35;;;;;;;;;;;11.40;99.90;;;;;;5096198;28;19912;-78
2021/12/25 14:59:04;;;;;;;;;;;11.40;99.90;;;;;;5096536;28;19909;-78
2021/12/25 15:01:34;;;;;;;;;;;11.40;99.90;;;;;;5096765;28;19912;-78
2021/12/25 15:04:13;;;;;;;;;;;11.30;99.90;;;;;;5096398;28;20384;-79
2021/12/25 15:06:48;;;;;;;;;;;11.30;99.90;;;;;;5095989;28;19916;-77
2021/12/25 15:09:15;;;;;;;;;;;11.40;99.90;;;;;;5076719;28;20477;-78
2021/12/25 15:11:51;;;;;;;;;;;11.40;99.90;;;;;;5078192;28;19908;-78
2021/12/25 15:14:19;;;;;;;;;;;11.40;99.90;;;;;;5096042;28;19920;-79
2021/12/25 15:16:48;;;;;;;;;;;11.40;99.90;;;;;;5095991;28;19916;-78
2021/12/25 15:19:24;;;;;;;;;;;11.40;99.90;;;;;;5096156;28;19908;-78
2021/12/25 15:21:49;;;;;;;;;;;11.40;99.90;;;;;;5077730;28;20445;-78
2021/12/25 15:24:16;;;;;;;;;;;11.30;99.90;;;;;;5096156;28;19908;-77
2021/12/25 15:26:44;;;;;;;;;;;11.30;99.90;;;;;;5095820;28;19908;-80
2021/12/25 15:29:09;;;;;;;;;;;11.20;99.90;;;;;;5095985;28;19908;-76
2021/12/25 15:31:35;;;;;;;;;;;11.20;99.90;;;;;;5095950;28;19965;-79